^^
Station Historical Data
Daily Summary for June 18, 2017 Units:  English    Metric   Both
« Previous Day
Next Day »
Daily Weekly Monthly Yearly Custom
  High: Low: Average:
Temperature: 85.9 °F 67.9 °F 75.6 °F
Dew Point: 75.4 °F 67.0 °F 71.4 °F
Humidity: 98% 71% 88%
Wind Speed: 7.0mph 0.0mph 1.8mph
Wind Gust: 15.0mph - -
Wind- - SSW
Pressure: 29.93 in 29.77 in -
Precipitation: 0.01 in    
Historical Graphs
 
 
Tabular Data for June 18, 2017
Time Temperature Dew Point Pressure Wind Wind Speed Wind Gust Humidity Rainfall Rate (Hourly) Conditions
00:00 68.2 °F 67.3 °F 29.93 in Calm   1.0 mph 97% 0.00 in RA
00:15 68.1 °F 67.2 °F 29.93 in WSW 1.0 mph 4.0 mph 97% 0.00 in CLR
00:30 68.0 °F 67.1 °F 29.92 in Calm   4.0 mph 97% 0.00 in CLR
00:45 67.9 °F 67.0 °F 29.91 in Calm   3.0 mph 97% 0.00 in CLR
01:00 67.9 °F 67.3 °F 29.91 in Calm   4.0 mph 98% 0.00 in CLR
01:15 67.9 °F 67.3 °F 29.91 in South 2.0 mph 3.0 mph 98% 0.00 in CLR
01:30 67.9 °F 67.3 °F 29.90 in Calm   4.0 mph 98% 0.00 in CLR
01:45 67.9 °F 67.3 °F 29.90 in Calm   3.0 mph 98% 0.00 in CLR
02:00 67.9 °F 67.3 °F 29.90 in SW 1.0 mph 4.0 mph 98% 0.00 in CLR
02:15 67.9 °F 67.3 °F 29.89 in Calm   5.0 mph 98% 0.00 in CLR
02:30 68.0 °F 67.4 °F 29.90 in Calm   3.0 mph 98% 0.00 in CLR
02:45 68.1 °F 67.5 °F 29.89 in Calm   2.0 mph 98% 0.01 in RA
03:00 68.2 °F 67.6 °F 29.89 in Calm   1.0 mph 98% 0.00 in
03:15 68.3 °F 67.7 °F 29.89 in Calm   2.0 mph 98% 0.00 in
03:45 68.4 °F 67.8 °F 29.89 in Calm   2.0 mph 98% 0.00 in
04:00 68.5 °F 67.9 °F 29.89 in Calm   2.0 mph 98% 0.00 in CLR
04:15 68.5 °F 67.9 °F 29.89 in Calm   1.0 mph 98% 0.00 in CLR
04:30 68.6 °F 68.0 °F 29.88 in Calm   1.0 mph 98% 0.00 in CLR
04:45 68.6 °F 68.0 °F 29.88 in Calm     98% 0.00 in CLR
05:00 68.7 °F 68.1 °F 29.88 in Calm     98% 0.00 in CLR
05:15 68.7 °F 68.1 °F 29.89 in Calm   1.0 mph 98% 0.00 in CLR
05:30 68.7 °F 68.1 °F 29.89 in Calm   2.0 mph 98% 0.00 in CLR
05:45 68.7 °F 68.1 °F 29.89 in Calm   2.0 mph 98% 0.00 in CLR
06:00 68.7 °F 68.1 °F 29.89 in Calm   1.0 mph 98% 0.00 in CLR
06:15 68.8 °F 68.2 °F 29.90 in Calm   1.0 mph 98% 0.00 in CLR
06:30 69.0 °F 68.4 °F 29.90 in Calm   2.0 mph 98% 0.00 in CLR
06:45 69.1 °F 68.5 °F 29.90 in Calm   2.0 mph 98% 0.00 in CLR
07:00 69.3 °F 68.7 °F 29.90 in Calm   1.0 mph 98% 0.00 in CLR
07:15 69.3 °F 68.7 °F 29.90 in Calm   2.0 mph 98% 0.00 in CLR
07:30 69.5 °F 68.9 °F 29.90 in Calm   2.0 mph 98% 0.00 in CLR
07:45 69.7 °F 69.1 °F 29.90 in Calm   4.0 mph 98% 0.00 in CLR
08:00 70.1 °F 69.5 °F 29.90 in SSW 1.0 mph 5.0 mph 98% 0.00 in CLR
08:15 70.4 °F 69.8 °F 29.91 in Calm   5.0 mph 98% 0.00 in
08:30 70.8 °F 70.2 °F 29.91 in SW 1.0 mph 4.0 mph 98% 0.00 in
08:45 71.3 °F 70.7 °F 29.91 in Calm   4.0 mph 98% 0.00 in
09:00 71.6 °F 71.0 °F 29.91 in Calm   6.0 mph 98% 0.00 in
09:15 72.1 °F 71.5 °F 29.91 in Calm   4.0 mph 98% 0.00 in
09:30 73.0 °F 72.4 °F 29.91 in SSW 2.0 mph 4.0 mph 98% 0.00 in
09:45 74.7 °F 74.1 °F 29.90 in South 1.0 mph 5.0 mph 98% 0.00 in
10:00 74.9 °F 73.7 °F 29.90 in SSW 1.0 mph 5.0 mph 96% 0.00 in
10:15 75.8 °F 74.6 °F 29.89 in SW 1.0 mph 5.0 mph 96% 0.00 in
10:30 76.3 °F 74.4 °F 29.89 in SW 2.0 mph 8.0 mph 94% 0.00 in
10:45 77.6 °F 74.5 °F 29.89 in SSW 3.0 mph 8.0 mph 90% 0.00 in
11:00 79.1 °F 74.9 °F 29.89 in SW 2.0 mph 12.0 mph 87% 0.00 in
11:15 80.4 °F 75.1 °F 29.88 in WSW 1.0 mph 7.0 mph 84% 0.00 in OVC
11:30 81.1 °F 74.7 °F 29.88 in SSW 5.0 mph 10.0 mph 81% 0.00 in OVC
11:45 80.8 °F 74.4 °F 29.87 in SW 2.0 mph 13.0 mph 81% 0.00 in OVC
12:15 82.4 °F 74.8 °F 29.86 in SW 5.0 mph 10.0 mph 78% 0.00 in OVC
12:30 82.8 °F 74.5 °F 29.86 in South 3.0 mph 9.0 mph 76% 0.00 in OVC
12:45 82.8 °F 74.8 °F 29.85 in SSW 3.0 mph 9.0 mph 77% 0.00 in OVC
13:00 83.2 °F 74.5 °F 29.85 in South 6.0 mph 12.0 mph 75% 0.00 in OVC
13:15 83.6 °F 74.0 °F 29.84 in SW 7.0 mph 15.0 mph 73% 0.00 in BKN
13:30 84.0 °F 74.4 °F 29.84 in SW 5.0 mph 14.0 mph 73% 0.00 in BKN
13:45 84.4 °F 74.3 °F 29.84 in SW 5.0 mph 14.0 mph 72% 0.00 in BKN
14:00 84.2 °F 74.1 °F 29.83 in SW 6.0 mph 13.0 mph 72% 0.00 in BKN
14:15 85.0 °F 74.5 °F 29.83 in SSW 6.0 mph 14.0 mph 71% 0.00 in BKN
14:30 85.2 °F 74.7 °F 29.83 in SSW 3.0 mph 13.0 mph 71% 0.00 in BKN
14:45 85.7 °F 75.2 °F 29.83 in SSW 5.0 mph 13.0 mph 71% 0.00 in BKN
15:00 85.4 °F 75.3 °F 29.82 in SSW 3.0 mph 12.0 mph 72% 0.00 in BKN
15:15 85.9 °F 75.4 °F 29.82 in SSW 5.0 mph 10.0 mph 71% 0.00 in SCT
15:30 85.0 °F 75.0 °F 29.82 in SW 3.0 mph 9.0 mph 72% 0.00 in SCT
15:45 84.8 °F 75.2 °F 29.81 in South 3.0 mph 13.0 mph 73% 0.00 in SCT
16:00 84.8 °F 74.3 °F 29.81 in SSW 3.0 mph 13.0 mph 71% 0.00 in SCT
16:15 84.5 °F 74.4 °F 29.81 in SSW 5.0 mph 12.0 mph 72% 0.00 in SCT
16:30 84.3 °F 74.7 °F 29.80 in SSW 6.0 mph 12.0 mph 73% 0.00 in SCT
16:45 84.5 °F 74.4 °F 29.79 in South 5.0 mph 9.0 mph 72% 0.00 in SCT
17:00 83.4 °F 73.9 °F 29.78 in SW 1.0 mph 13.0 mph 73% 0.00 in SCT
17:15 84.1 °F 74.9 °F 29.77 in SW 1.0 mph 10.0 mph 74% 0.00 in SCT
17:30 83.7 °F 74.1 °F 29.77 in WSW 2.0 mph 12.0 mph 73% 0.00 in SCT
17:45 83.9 °F 73.9 °F 29.77 in SSW 6.0 mph 10.0 mph 72% 0.00 in SCT
18:00 83.9 °F 74.3 °F 29.78 in SSW 5.0 mph 15.0 mph 73% 0.00 in SCT
18:15 82.3 °F 74.0 °F 29.77 in South 2.0 mph 12.0 mph 76% 0.00 in FEW
18:30 82.3 °F 73.6 °F 29.78 in SSW 6.0 mph 10.0 mph 75% 0.00 in FEW
18:45 82.2 °F 73.9 °F 29.78 in South 3.0 mph 10.0 mph 76% 0.00 in FEW
19:00 81.1 °F 73.6 °F 29.78 in SW 1.0 mph 12.0 mph 78% 0.00 in FEW
19:15 79.6 °F 73.3 °F 29.78 in Calm   10.0 mph 81% 0.00 in SCT
19:30 78.7 °F 73.1 °F 29.78 in Calm   4.0 mph 83% 0.00 in SCT
19:45 78.6 °F 72.6 °F 29.78 in SSW 1.0 mph 7.0 mph 82% 0.00 in SCT
20:00 78.3 °F 72.3 °F 29.79 in SW 3.0 mph 10.0 mph 82% 0.00 in SCT
20:15 77.8 °F 72.2 °F 29.78 in WSW 1.0 mph 5.0 mph 83% 0.00 in BKN
20:30 77.1 °F 71.9 °F 29.78 in South 1.0 mph 4.0 mph 84% 0.00 in BKN
20:45 76.4 °F 71.6 °F 29.78 in SW 1.0 mph 4.0 mph 85% 0.00 in BKN
21:00 75.7 °F 71.6 °F 29.78 in Calm   5.0 mph 87% 0.00 in BKN
21:15 75.4 °F 71.2 °F 29.79 in SSW 3.0 mph 8.0 mph 87% 0.00 in CLR
21:30 74.8 °F 71.0 °F 29.80 in SW 3.0 mph 7.0 mph 88% 0.00 in CLR
21:45 74.2 °F 70.7 °F 29.80 in SW 2.0 mph 9.0 mph 89% 0.00 in CLR
22:00 73.9 °F 70.8 °F 29.81 in SW 3.0 mph 9.0 mph 90% 0.00 in CLR
22:15 73.6 °F 70.8 °F 29.82 in SSW 2.0 mph 9.0 mph 91% 0.00 in FEW
22:30 73.5 °F 70.7 °F 29.82 in Calm   6.0 mph 91% 0.00 in FEW
22:45 73.5 °F 70.7 °F 29.82 in SSW 3.0 mph 6.0 mph 91% 0.00 in FEW
23:00 73.3 °F 70.9 °F 29.83 in SSW 1.0 mph 7.0 mph 92% 0.00 in FEW
23:15 73.5 °F 71.0 °F 29.83 in SSW 2.0 mph 6.0 mph 92% 0.00 in FEW
23:30 73.8 °F 71.0 °F 29.83 in SSW 2.0 mph 7.0 mph 91% 0.00 in FEW
23:45 74.1 °F 71.3 °F 29.83 in SSW 1.0 mph 6.0 mph 91% 0.00 in FEW
TarryTown NY Weather
Compliments of Weather Underground - 1.5 mb